createdAt,value
2023-08-28T00:00:36.339Z,96926.41
2023-08-28T00:03:04.581Z,96924.09
2023-08-28T00:05:32.788Z,96917.66
2023-08-28T00:08:00.694Z,96913.59
2023-08-28T00:10:28.403Z,96925.69
2023-08-28T00:12:56.184Z,96913.03
2023-08-28T00:15:24.029Z,96915.78
2023-08-28T00:17:51.886Z,96918.41
2023-08-28T00:20:19.686Z,96924.69
2023-08-28T00:22:47.486Z,96924.66
2023-08-28T00:25:15.292Z,96941.78
2023-08-28T00:27:43.049Z,96939.22
2023-08-28T00:30:11.303Z,96941.63
2023-08-28T00:32:40.531Z,96932.69
2023-08-28T00:35:09.316Z,96931.94
2023-08-28T00:37:37.093Z,96935.59
2023-08-28T00:40:05.284Z,96931.72
2023-08-28T00:42:34.398Z,96926.19
2023-08-28T00:45:02.277Z,96932.38
2023-08-28T00:47:30.125Z,96921.16
2023-08-28T00:49:58.014Z,96928.31
2023-08-28T00:52:27.316Z,96920.97
2023-08-28T00:54:55.182Z,96922.44
2023-08-28T00:57:22.962Z,96923.44
2023-08-28T00:59:50.759Z,96915.28
2023-08-28T01:02:19.099Z,96924.09
2023-08-28T01:04:47.004Z,96928.38
2023-08-28T01:07:22.054Z,96922.25
2023-08-28T01:10:14.188Z,96918.28
2023-08-28T01:12:55.057Z,96936.81
2023-08-28T01:15:23.624Z,96936.72
2023-08-28T01:17:59.677Z,96930.47
2023-08-28T01:20:28.649Z,96934.56
2023-08-28T01:22:59.945Z,96931.56
2023-08-28T01:25:28.148Z,96931.25
2023-08-28T01:27:56.947Z,96929.97
2023-08-28T01:30:24.781Z,96920.06
2023-08-28T01:32:52.645Z,96921.03
2023-08-28T01:35:23.081Z,96920.06
2023-08-28T01:38:00.026Z,96920.25
2023-08-28T01:40:34.274Z,96921.75
2023-08-28T01:43:03.022Z,96911.84
2023-08-28T01:45:30.961Z,96935.72
2023-08-28T01:47:59.994Z,96928.28
2023-08-28T01:50:27.903Z,96917.31
2023-08-28T01:52:55.683Z,96915.53
2023-08-28T01:55:42.730Z,96917.09
2023-08-28T01:58:10.631Z,96906.03
2023-08-28T02:00:38.380Z,96906.66
2023-08-28T02:03:06.714Z,96911.13
2023-08-28T02:05:34.565Z,96907.63
2023-08-28T02:08:02.696Z,96912.09
2023-08-28T02:10:30.915Z,96912.59
2023-08-28T02:12:58.888Z,96912.41
2023-08-28T02:15:26.830Z,96902.19
2023-08-28T02:17:54.618Z,96897.94
2023-08-28T02:20:22.445Z,96903.06
2023-08-28T02:22:50.954Z,96906.28
2023-08-28T02:25:22.074Z,96903.28
2023-08-28T02:27:52.792Z,96898.03
2023-08-28T02:30:20.631Z,96904.06
2023-08-28T02:32:48.492Z,96893.69
2023-08-28T02:35:16.343Z,96891.78
2023-08-28T02:37:44.539Z,96890.91
2023-08-28T02:40:12.418Z,96891.47
2023-08-28T02:42:40.256Z,96886.63
2023-08-28T02:45:08.914Z,96891.97
2023-08-28T02:47:38.298Z,96887.63
2023-08-28T02:50:06.589Z,96891.88
2023-08-28T02:52:34.386Z,96899.25
2023-08-28T02:55:02.278Z,96901.19
2023-08-28T02:57:30.042Z,96899.16
2023-08-28T02:59:57.856Z,96899.59
2023-08-28T03:02:25.725Z,96897.03
2023-08-28T03:04:53.569Z,96892.81
2023-08-28T03:07:21.507Z,96894.41
2023-08-28T03:09:49.438Z,96886.25
2023-08-28T03:12:17.172Z,96897.31
2023-08-28T03:14:45.011Z,96889.84
2023-08-28T03:17:14.889Z,96886.94
2023-08-28T03:19:42.963Z,96880.59
2023-08-28T03:22:12.469Z,96885.69
2023-08-28T03:24:40.370Z,96883.28
2023-08-28T03:27:08.346Z,96887.44
2023-08-28T03:29:36.117Z,96893.56
2023-08-28T03:32:04.501Z,96892.47
2023-08-28T03:34:32.236Z,96896.69
2023-08-28T03:37:00.042Z,96895.22
2023-08-28T03:39:27.757Z,96898.13
2023-08-28T03:41:55.560Z,96895.94
2023-08-28T03:44:23.716Z,96892.41
2023-08-28T03:46:51.944Z,96895.16
2023-08-28T03:49:19.637Z,96896.91
2023-08-28T03:51:47.449Z,96911.84
2023-08-28T03:54:15.214Z,96907.09
2023-08-28T03:56:43.484Z,96899.75
2023-08-28T03:59:12.523Z,96903.94
2023-08-28T04:01:40.385Z,96906.47
2023-08-28T04:04:08.221Z,96911.47
2023-08-28T04:06:36.411Z,96900.38
2023-08-28T04:09:04.168Z,96895.22
2023-08-28T04:11:32.361Z,96901.78
2023-08-28T04:14:00.719Z,96904.63
2023-08-28T04:16:28.553Z,96904.13
2023-08-28T04:18:56.353Z,96904.00
2023-08-28T04:21:24.097Z,96897.22
2023-08-28T04:23:51.979Z,96891.19
2023-08-28T04:26:19.766Z,96894.31
2023-08-28T04:28:47.561Z,96895.84
2023-08-28T04:31:15.361Z,96895.56
2023-08-28T04:33:43.082Z,96898.19
2023-08-28T04:36:10.886Z,96900.19
2023-08-28T04:38:38.727Z,96905.09
2023-08-28T04:41:06.500Z,96904.19
2023-08-28T04:43:35.100Z,96914.72
2023-08-28T04:46:03.055Z,96913.38
2023-08-28T04:48:33.342Z,96920.91
2023-08-28T04:51:01.225Z,96926.22
2023-08-28T04:53:29.065Z,96926.81
2023-08-28T04:55:56.888Z,96920.84
2023-08-28T04:58:26.306Z,96926.97
2023-08-28T05:00:55.322Z,96925.19
2023-08-28T05:03:23.570Z,96916.63
2023-08-28T05:05:54.068Z,96916.25
2023-08-28T05:08:21.967Z,96907.91
2023-08-28T05:10:49.813Z,96905.38
2023-08-28T05:13:18.379Z,96902.44
2023-08-28T05:15:46.263Z,96900.00
2023-08-28T05:18:14.629Z,96906.75
2023-08-28T05:20:42.688Z,96899.06
2023-08-28T05:23:11.467Z,96903.59
2023-08-28T05:25:39.264Z,96899.38
2023-08-28T05:28:07.005Z,96892.16
2023-08-28T05:30:34.812Z,96901.28
2023-08-28T05:33:02.832Z,96902.72
2023-08-28T05:35:30.910Z,96881.50
2023-08-28T05:37:58.737Z,96891.34
2023-08-28T05:40:27.700Z,96886.09
2023-08-28T05:42:55.434Z,96890.03
2023-08-28T05:45:23.275Z,96883.59
2023-08-28T05:47:51.460Z,96886.84
2023-08-28T05:50:19.634Z,96884.25
2023-08-28T05:52:48.035Z,96878.59
2023-08-28T05:55:15.920Z,96872.72
2023-08-28T05:57:43.697Z,96873.41
2023-08-28T06:00:15.172Z,96870.94
2023-08-28T06:02:44.083Z,96870.31
2023-08-28T06:05:11.997Z,96868.63
2023-08-28T06:07:39.806Z,96877.28
2023-08-28T06:10:09.125Z,96872.34
2023-08-28T06:12:36.975Z,96867.25
2023-08-28T06:15:06.180Z,96869.66
2023-08-28T06:17:33.991Z,96864.34
2023-08-28T06:20:01.791Z,96867.53
2023-08-28T06:22:29.614Z,96870.03
2023-08-28T06:24:58.237Z,96872.31
2023-08-28T06:27:26.043Z,96877.25
2023-08-28T06:29:53.826Z,96876.88
2023-08-28T06:32:21.730Z,96879.16
2023-08-28T06:34:49.545Z,96879.09
2023-08-28T06:37:17.361Z,96883.16
2023-08-28T06:39:45.142Z,96878.22
2023-08-28T06:42:13.257Z,96878.38
2023-08-28T06:44:43.155Z,96876.94
2023-08-28T06:47:10.998Z,96873.56
2023-08-28T06:49:38.734Z,96887.19
2023-08-28T06:52:06.743Z,96894.00
2023-08-28T06:54:49.550Z,96878.84
2023-08-28T06:57:20.522Z,96876.81
2023-08-28T06:59:50.218Z,96871.56
2023-08-28T07:02:18.239Z,96876.00
2023-08-28T07:04:46.025Z,96871.31
2023-08-28T07:07:21.248Z,96863.94
2023-08-28T07:09:49.077Z,96868.13
2023-08-28T07:12:16.848Z,96863.25
2023-08-28T07:14:44.613Z,96857.16
2023-08-28T07:17:12.377Z,96863.75
2023-08-28T07:19:40.169Z,96866.72
2023-08-28T07:22:07.952Z,96865.44
2023-08-28T07:24:35.855Z,96864.88
2023-08-28T07:27:04.185Z,96863.44
2023-08-28T07:29:31.904Z,96865.56
2023-08-28T07:31:59.730Z,96859.91
2023-08-28T07:34:27.447Z,96865.63
2023-08-28T07:36:55.208Z,96852.47
2023-08-28T07:39:23.243Z,96858.88
2023-08-28T07:41:51.084Z,96857.34
2023-08-28T07:44:18.975Z,96863.75
2023-08-28T07:46:46.805Z,96849.16
2023-08-28T07:49:14.537Z,96852.47
2023-08-28T07:51:42.401Z,96846.06
2023-08-28T07:54:10.155Z,96851.81
2023-08-28T07:56:37.969Z,96841.56
2023-08-28T07:59:05.732Z,96845.84
2023-08-28T08:01:33.618Z,96847.00
2023-08-28T08:04:01.422Z,96840.50
2023-08-28T08:06:29.225Z,96836.75
2023-08-28T08:08:57.002Z,96829.09
2023-08-28T08:11:24.864Z,96834.88
2023-08-28T08:13:52.580Z,96835.19
2023-08-28T08:16:20.452Z,96839.84
2023-08-28T08:18:48.307Z,96833.50
2023-08-28T08:21:16.783Z,96831.34
2023-08-28T08:23:44.547Z,96827.78
2023-08-28T08:26:12.389Z,96830.97
2023-08-28T08:28:40.175Z,96818.06
2023-08-28T08:31:08.171Z,96825.97
2023-08-28T08:33:35.916Z,96821.16
2023-08-28T08:36:03.868Z,96816.53
2023-08-28T08:38:31.648Z,96828.19
2023-08-28T08:40:59.807Z,96829.50
2023-08-28T08:43:27.626Z,96824.47
2023-08-28T08:46:00.069Z,96813.78
2023-08-28T08:48:29.007Z,96817.50
2023-08-28T08:51:02.980Z,96806.38
2023-08-28T08:53:33.113Z,96800.50
2023-08-28T08:56:02.603Z,96800.75
2023-08-28T08:58:31.471Z,96793.97
2023-08-28T09:00:59.722Z,96791.06
2023-08-28T09:03:27.856Z,96793.81
2023-08-28T09:05:55.792Z,96793.06
2023-08-28T09:08:24.708Z,96790.28
2023-08-28T09:10:52.450Z,96793.38
2023-08-28T09:13:20.297Z,96791.91
2023-08-28T09:15:48.103Z,96787.00
2023-08-28T09:18:15.970Z,96776.72
2023-08-28T09:20:43.724Z,96789.03
2023-08-28T09:23:11.733Z,96793.97
2023-08-28T09:25:39.556Z,96787.88
2023-08-28T09:28:07.305Z,96776.78
2023-08-28T09:30:39.294Z,96781.31
2023-08-28T09:33:08.518Z,96774.38
2023-08-28T09:35:39.039Z,96771.97
2023-08-28T09:38:06.928Z,96768.25
2023-08-28T09:40:41.635Z,96770.47
2023-08-28T09:43:12.576Z,96770.88
2023-08-28T09:45:41.168Z,96767.31
2023-08-28T09:48:09.261Z,96773.84
2023-08-28T09:50:42.110Z,96762.75
2023-08-28T09:53:10.544Z,96759.63
2023-08-28T09:55:48.164Z,96756.34
2023-08-28T09:58:16.043Z,96750.16
2023-08-28T10:00:44.677Z,96736.81
2023-08-28T10:03:13.497Z,96739.78
2023-08-28T10:05:43.565Z,96735.81
2023-08-28T10:08:13.733Z,96742.59
2023-08-28T10:10:42.895Z,96738.03
2023-08-28T10:13:20.134Z,96734.22
2023-08-28T10:16:11.769Z,96737.41
2023-08-28T10:18:41.221Z,96726.97
2023-08-28T10:21:09.080Z,96738.31
2023-08-28T10:23:36.894Z,96733.00
2023-08-28T10:26:04.624Z,96735.50
2023-08-28T10:28:32.388Z,96725.81
2023-08-28T10:31:00.169Z,96716.44
2023-08-28T10:33:29.310Z,96724.09
2023-08-28T10:35:57.091Z,96723.00
2023-08-28T10:38:24.907Z,96706.25
2023-08-28T10:40:53.810Z,96702.63
2023-08-28T10:43:22.528Z,96706.47
2023-08-28T10:45:51.103Z,96700.56
2023-08-28T10:48:19.011Z,96695.03
2023-08-28T10:50:46.784Z,96693.25
2023-08-28T10:53:15.544Z,96687.34
2023-08-28T10:55:54.356Z,96691.59
2023-08-28T10:58:22.585Z,96695.38
2023-08-28T11:01:15.506Z,96681.72
2023-08-28T11:03:52.330Z,96679.19
2023-08-28T11:06:35.630Z,96674.66
2023-08-28T11:09:31.380Z,96678.47
2023-08-28T11:11:59.175Z,96679.56
2023-08-28T11:14:39.643Z,96676.66
2023-08-28T11:17:12.078Z,96667.06
2023-08-28T11:19:57.922Z,96652.66
2023-08-28T11:22:28.667Z,96657.34
2023-08-28T11:24:56.836Z,96648.03
2023-08-28T11:27:54.550Z,96648.59
2023-08-28T13:09:59.542Z,96510.81
2023-08-28T13:12:27.706Z,96504.56
2023-08-28T13:14:55.600Z,96510.41
2023-08-28T13:17:23.531Z,96515.63
2023-08-28T13:19:51.346Z,96505.06
2023-08-28T13:22:19.143Z,96504.25
2023-08-28T13:24:46.878Z,96496.34
2023-08-28T13:27:14.672Z,96494.22
2023-08-28T13:29:42.458Z,96494.56
2023-08-28T13:32:10.185Z,96493.31
2023-08-28T13:34:38.009Z,96488.00
2023-08-28T13:37:07.127Z,96482.22
2023-08-28T13:39:34.982Z,96474.16
2023-08-28T13:42:02.754Z,96466.63
2023-08-28T13:44:31.721Z,96474.09
2023-08-28T13:46:59.654Z,96473.81
2023-08-28T13:49:27.495Z,96465.50
2023-08-28T13:51:55.262Z,96480.81
2023-08-28T13:54:23.045Z,96471.69
2023-08-28T13:56:52.325Z,96464.25
2023-08-28T13:59:20.081Z,96469.25
2023-08-28T14:01:47.932Z,96460.13
2023-08-28T14:04:15.745Z,96461.97
2023-08-28T14:06:43.505Z,96457.47
2023-08-28T14:09:11.291Z,96463.34
2023-08-28T14:11:39.076Z,96456.47
2023-08-28T14:14:06.923Z,96463.03
2023-08-28T14:16:34.704Z,96459.19
2023-08-28T14:19:02.483Z,96451.06
2023-08-28T14:21:30.218Z,96434.34
2023-08-28T14:23:58.368Z,96441.69
2023-08-28T14:26:26.739Z,96442.25
2023-08-28T14:28:54.786Z,96430.84
2023-08-28T14:31:22.540Z,96442.66
2023-08-28T14:33:50.356Z,96441.31
2023-08-28T14:36:18.132Z,96443.31
2023-08-28T14:38:45.889Z,96442.91
2023-08-28T14:41:13.855Z,96432.13
2023-08-28T14:43:41.650Z,96431.75
2023-08-28T14:46:09.453Z,96437.88
2023-08-28T14:48:37.229Z,96429.19
2023-08-28T14:51:04.970Z,96431.19
2023-08-28T14:53:32.779Z,96433.91
2023-08-28T14:56:00.557Z,96429.06
2023-08-28T14:58:28.424Z,96426.75
2023-08-28T15:00:56.319Z,96418.44
2023-08-28T15:03:24.703Z,96422.00
2023-08-28T15:05:52.578Z,96409.94
2023-08-28T15:08:20.435Z,96408.41
2023-08-28T15:10:51.948Z,96418.09
2023-08-28T15:13:19.861Z,96415.13
2023-08-28T15:15:47.891Z,96423.75
2023-08-28T15:18:15.960Z,96401.06
2023-08-28T15:20:43.803Z,96418.44
2023-08-28T15:23:11.730Z,96411.00
2023-08-28T15:25:39.634Z,96420.91
2023-08-28T15:28:09.412Z,96414.56
2023-08-28T15:30:37.183Z,96414.56
2023-08-28T15:33:05.813Z,96410.31
2023-08-28T15:35:34.242Z,96410.31
2023-08-28T15:38:02.025Z,96414.88
2023-08-28T15:40:29.786Z,96403.94
2023-08-28T15:42:57.708Z,96396.28
2023-08-28T15:45:25.652Z,96403.97
2023-08-28T15:47:53.518Z,96407.66
2023-08-28T15:50:21.312Z,96414.84
2023-08-28T15:52:49.153Z,96413.91
2023-08-28T15:55:17.001Z,96412.53
2023-08-28T15:57:45.730Z,96407.09
2023-08-28T16:00:13.976Z,96412.44
2023-08-28T16:02:41.779Z,96410.94
2023-08-28T16:05:09.706Z,96404.00
2023-08-28T16:07:37.442Z,96414.78
2023-08-28T16:10:06.210Z,96410.63
2023-08-28T16:12:34.085Z,96412.56
2023-08-28T16:15:01.908Z,96417.94
2023-08-28T16:17:29.749Z,96413.75
2023-08-28T16:19:57.572Z,96411.56
2023-08-28T16:22:25.318Z,96414.66
2023-08-28T16:24:53.404Z,96413.53
2023-08-28T16:27:22.258Z,96401.72
2023-08-28T16:29:51.093Z,96403.31
2023-08-28T16:32:20.805Z,96395.34
2023-08-28T16:34:48.899Z,96397.34
2023-08-28T16:37:18.287Z,96397.41
2023-08-28T16:39:46.111Z,96402.78
2023-08-28T16:42:13.876Z,96396.34
2023-08-28T16:44:43.450Z,96386.81
2023-08-28T16:47:11.188Z,96395.66
2023-08-28T16:49:39.088Z,96389.56
2023-08-28T16:52:06.917Z,96394.16
2023-08-28T16:54:37.289Z,96401.75
2023-08-28T16:57:05.687Z,96391.06
2023-08-28T16:59:33.409Z,96389.91
2023-08-28T17:02:01.169Z,96390.69
2023-08-28T17:04:29.143Z,96387.19
2023-08-28T17:07:00.543Z,96397.81
2023-08-28T17:09:29.596Z,96395.47
2023-08-28T17:11:58.341Z,96388.19
2023-08-28T17:14:26.186Z,96387.69
2023-08-28T17:16:56.617Z,96392.91
2023-08-28T17:19:24.459Z,96398.28
2023-08-28T17:21:52.348Z,96395.16
2023-08-28T17:24:20.165Z,96400.91
2023-08-28T17:26:47.890Z,96394.81
2023-08-28T17:29:16.293Z,96391.59
2023-08-28T17:31:44.102Z,96393.50
2023-08-28T17:34:11.959Z,96399.25
2023-08-28T17:36:39.744Z,96407.25
2023-08-28T17:39:16.778Z,96416.47
2023-08-28T17:41:44.735Z,96402.00
2023-08-28T17:44:14.122Z,96409.56
2023-08-28T17:46:42.801Z,96413.41
2023-08-28T17:49:10.714Z,96417.50
2023-08-28T17:51:40.331Z,96427.16
2023-08-28T17:54:08.252Z,96427.78
2023-08-28T17:56:36.934Z,96428.84
2023-08-28T17:59:04.993Z,96429.63
2023-08-28T18:01:33.015Z,96435.72
2023-08-28T18:04:01.354Z,96439.59
2023-08-28T18:06:31.153Z,96441.38
2023-08-28T18:08:58.925Z,96451.28
2023-08-28T18:11:26.682Z,96445.88
2023-08-28T18:13:54.936Z,96454.84
2023-08-28T18:16:22.853Z,96447.59
2023-08-28T18:18:52.934Z,96464.66
2023-08-28T18:21:20.697Z,96458.81
2023-08-28T18:23:52.204Z,96452.56
2023-08-28T18:26:20.838Z,96451.16
2023-08-28T18:28:48.760Z,96454.38
2023-08-28T18:31:16.618Z,96458.00
2023-08-28T18:33:44.515Z,96465.03
2023-08-28T18:36:12.301Z,96459.72
2023-08-28T18:38:43.060Z,96454.09
2023-08-28T18:41:11.326Z,96464.28
2023-08-28T18:43:39.208Z,96464.41
2023-08-28T18:46:07.072Z,96467.47
2023-08-28T18:48:35.032Z,96460.09
2023-08-28T18:51:04.276Z,96461.75
2023-08-28T18:53:32.031Z,96463.78
2023-08-28T18:56:00.376Z,96455.16
2023-08-28T18:58:28.400Z,96464.06
2023-08-28T19:00:59.405Z,96468.41
2023-08-28T19:03:27.420Z,96461.09
2023-08-28T19:05:56.226Z,96452.38
2023-08-28T19:08:24.121Z,96461.94
2023-08-28T19:10:53.376Z,96458.84
2023-08-28T19:13:21.279Z,96472.66
2023-08-28T19:15:49.645Z,96473.34
2023-08-28T19:18:17.699Z,96469.03
2023-08-28T19:21:00.227Z,96467.63
2023-08-28T19:23:30.851Z,96474.19
2023-08-28T19:25:58.646Z,96478.88
2023-08-28T19:28:26.488Z,96478.28
2023-08-28T19:30:54.514Z,96478.22
2023-08-28T19:33:22.906Z,96476.09
2023-08-28T19:35:51.995Z,96479.00
2023-08-28T19:38:20.152Z,96476.28
2023-08-28T19:40:48.077Z,96475.75
2023-08-28T19:43:16.559Z,96479.31
2023-08-28T19:45:44.513Z,96478.91
2023-08-28T19:48:12.316Z,96477.28
2023-08-28T19:50:41.013Z,96480.38
2023-08-28T19:53:09.504Z,96466.44
2023-08-28T19:55:37.333Z,96471.41
2023-08-28T19:58:05.575Z,96469.44
2023-08-28T20:00:33.740Z,96465.66
2023-08-28T20:03:01.586Z,96474.56
2023-08-28T20:05:29.461Z,96473.88
2023-08-28T20:07:57.227Z,96478.97
2023-08-28T20:10:24.994Z,96483.41
2023-08-28T20:12:52.819Z,96479.00
2023-08-28T20:15:23.124Z,96480.59
2023-08-28T20:17:51.826Z,96465.94
2023-08-28T20:20:19.855Z,96473.03
2023-08-28T20:22:47.880Z,96462.41
2023-08-28T20:25:16.157Z,96465.78
2023-08-28T20:27:44.606Z,96467.31
2023-08-28T20:30:12.724Z,96463.34
2023-08-28T20:32:40.980Z,96466.00
2023-08-28T20:35:10.035Z,96470.63
2023-08-28T20:37:39.018Z,96463.34
2023-08-28T20:40:07.974Z,96469.00
2023-08-28T20:42:36.937Z,96463.09
2023-08-28T20:45:06.316Z,96457.31
2023-08-28T20:47:37.389Z,96460.34
2023-08-28T20:50:09.840Z,96461.53
2023-08-28T20:52:38.670Z,96461.50
2023-08-28T20:55:08.300Z,96448.41
2023-08-28T20:57:36.457Z,96450.47
2023-08-28T21:00:06.158Z,96454.31
2023-08-28T21:02:34.170Z,96471.34
2023-08-28T21:05:02.472Z,96460.28
2023-08-28T21:07:31.522Z,96454.00
2023-08-28T21:09:59.290Z,96456.78
2023-08-28T21:12:27.072Z,96454.22
2023-08-28T21:14:55.397Z,96455.31
2023-08-28T21:17:23.242Z,96453.75
2023-08-28T21:19:54.401Z,96462.97
2023-08-28T21:22:24.906Z,96459.94
2023-08-28T21:24:52.870Z,96451.81
2023-08-28T21:27:22.082Z,96457.84
2023-08-28T21:29:49.875Z,96473.81
2023-08-28T21:32:17.681Z,96469.91
2023-08-28T21:34:45.513Z,96471.56
2023-08-28T21:37:13.331Z,96474.94
2023-08-28T21:39:41.489Z,96473.75
2023-08-28T21:42:09.736Z,96479.19
2023-08-28T21:44:38.629Z,96470.06
2023-08-28T21:47:06.690Z,96471.78
2023-08-28T21:49:53.598Z,96468.41
2023-08-28T21:52:40.436Z,96469.06
2023-08-28T21:55:27.098Z,96458.75
2023-08-28T21:58:14.495Z,96469.06
2023-08-28T22:01:01.008Z,96467.16
2023-08-28T22:03:47.888Z,96468.69
2023-08-28T22:06:36.156Z,96460.84
2023-08-28T22:09:04.987Z,96462.53
2023-08-28T22:12:04.869Z,96452.25
2023-08-28T22:14:38.879Z,96458.22
2023-08-28T22:17:07.269Z,96461.50
2023-08-28T22:19:35.202Z,96462.06
2023-08-28T22:22:03.765Z,96460.44
2023-08-28T22:24:31.535Z,96456.31
2023-08-28T22:27:02.815Z,96457.22
2023-08-28T22:29:31.794Z,96454.41
2023-08-28T22:31:59.615Z,96452.28
2023-08-28T22:34:27.838Z,96455.84
2023-08-28T22:36:56.366Z,96442.63
2023-08-28T22:39:24.220Z,96440.84
2023-08-28T22:41:52.056Z,96435.38
2023-08-28T22:44:20.894Z,96434.97
2023-08-28T22:46:48.735Z,96433.69
2023-08-28T22:49:16.532Z,96431.91
2023-08-28T22:51:45.358Z,96421.34
2023-08-28T22:54:13.597Z,96415.13
2023-08-28T22:56:41.425Z,96418.63
2023-08-28T22:59:09.204Z,96415.69
2023-08-28T23:01:38.223Z,96411.97
2023-08-28T23:04:08.529Z,96402.34
2023-08-28T23:06:36.352Z,96407.31
2023-08-28T23:09:06.463Z,96412.72
2023-08-28T23:11:34.336Z,96414.41
2023-08-28T23:14:02.517Z,96419.19
2023-08-28T23:16:31.076Z,96409.97
2023-08-28T23:18:59.265Z,96410.22
2023-08-28T23:21:27.186Z,96419.34
2023-08-28T23:23:56.366Z,96409.72
2023-08-28T23:26:25.085Z,96417.00
2023-08-28T23:28:53.006Z,96415.97
2023-08-28T23:31:20.985Z,96412.25
2023-08-28T23:33:49.238Z,96415.28
2023-08-28T23:36:17.022Z,96411.06
2023-08-28T23:38:44.870Z,96415.69
2023-08-28T23:41:12.635Z,96419.25
2023-08-28T23:43:40.385Z,96417.00
2023-08-28T23:46:08.215Z,96423.91
2023-08-28T23:48:36.515Z,96423.19
2023-08-28T23:51:05.788Z,96426.28
2023-08-28T23:53:34.617Z,96420.88
2023-08-28T23:56:03.473Z,96412.41
2023-08-28T23:58:32.598Z,96417.25
